createdAt,value
2023-01-15T00:02:10.065Z,98081.02
2023-01-15T00:04:45.804Z,98072.86
2023-01-15T00:07:45.854Z,98064.15
2023-01-15T00:10:18.853Z,98055.59
2023-01-15T00:12:53.557Z,98047.06
2023-01-15T00:15:54.485Z,98039.41
2023-01-15T00:18:28.665Z,98027.77
2023-01-15T00:21:50.089Z,98031.27
2023-01-15T00:25:30.633Z,98029.04
2023-01-15T00:28:28.976Z,98019.42
2023-01-15T00:31:01.200Z,98006.88
2023-01-15T00:34:51.732Z,98007.92
2023-01-15T00:37:53.634Z,98004.98
2023-01-15T00:40:27.700Z,98005.53
2023-01-15T00:43:05.725Z,98004.86
2023-01-15T00:49:51.654Z,98012.61
2023-01-15T00:52:26.987Z,98015.05
2023-01-15T00:55:02.658Z,98015.95
2023-01-15T00:57:36.548Z,98004.27
2023-01-15T01:00:14.205Z,97994.88
2023-01-15T01:02:50.607Z,97991.02
2023-01-15T01:06:10.413Z,97978.46
2023-01-15T01:08:46.178Z,97967.98
2023-01-15T01:11:24.638Z,97958.56
2023-01-15T01:14:22.287Z,97958.39
2023-01-15T01:17:02.379Z,97949.33
2023-01-15T01:19:59.533Z,97943.77
2023-01-15T01:23:01.871Z,97938.17
2023-01-15T01:25:34.452Z,97932.06
2023-01-15T01:28:55.683Z,97930.85
2023-01-15T01:32:19.283Z,97923.33
2023-01-15T01:34:56.895Z,97913.36
2023-01-15T01:37:30.679Z,97910.91
2023-01-15T01:40:03.289Z,97902.88
2023-01-15T01:42:39.936Z,97907.42
2023-01-15T01:48:48.658Z,97899.03
2023-01-15T01:51:55.241Z,97906.02
2023-01-15T01:55:20.261Z,97893.80
2023-01-15T01:57:53.782Z,97900.77
2023-01-15T02:00:31.758Z,97895.35
2023-01-15T02:03:30.577Z,97897.79
2023-01-15T02:06:04.512Z,97894.81
2023-01-15T02:08:40.888Z,97890.79
2023-01-15T02:11:37.878Z,97879.09
2023-01-15T02:14:20.599Z,97876.63
2023-01-15T02:17:04.524Z,97865.28
2023-01-15T02:20:11.606Z,97862.84
2023-01-15T02:22:56.308Z,97858.11
2023-01-15T02:25:39.700Z,97859.33
2023-01-15T02:28:21.780Z,97859.86
2023-01-15T02:31:21.532Z,97857.93
2023-01-15T02:34:25.531Z,97869.27
2023-01-15T02:38:16.842Z,97860.01
2023-01-15T02:42:05.341Z,97841.49
2023-01-15T02:44:39.747Z,97833.45
2023-01-15T02:47:21.081Z,97833.48
2023-01-15T02:50:03.716Z,97831.89
2023-01-15T02:52:38.551Z,97846.22
2023-01-15T02:55:20.437Z,97850.08
2023-01-15T02:57:58.679Z,97844.83
2023-01-15T03:04:06.503Z,97835.40
2023-01-15T03:10:04.777Z,97825.63
2023-01-15T03:13:02.249Z,97823.52
2023-01-15T03:16:39.745Z,97823.70
2023-01-15T03:19:40.665Z,97832.08
2023-01-15T03:28:47.212Z,97816.02
2023-01-15T03:31:27.943Z,97809.03
2023-01-15T03:34:26.073Z,97802.56
2023-01-15T03:37:27.005Z,97794.52
2023-01-15T03:40:04.549Z,97788.42
2023-01-15T03:42:49.198Z,97784.40
2023-01-15T03:45:48.505Z,97784.04
2023-01-15T03:48:32.799Z,97783.33
2023-01-15T03:51:14.644Z,97785.27
2023-01-15T03:53:54.613Z,97783.51
2023-01-15T03:56:57.750Z,97787.35
2023-01-15T04:00:01.539Z,97777.73
2023-01-15T04:02:38.425Z,97773.89
2023-01-15T04:05:15.380Z,97769.69
2023-01-15T04:11:14.724Z,97759.37
2023-01-15T04:14:11.835Z,97756.04
2023-01-15T04:16:47.578Z,97752.70
2023-01-15T04:19:21.577Z,97750.08
2023-01-15T04:21:57.848Z,97747.44
2023-01-15T04:24:38.043Z,97743.41
2023-01-15T04:27:39.279Z,97745.67
2023-01-15T04:30:40.514Z,97751.08
2023-01-15T04:33:16.266Z,97746.70
2023-01-15T04:36:19.727Z,97747.04
2023-01-15T04:39:20.415Z,97747.55
2023-01-15T04:45:13.876Z,97731.80
2023-01-15T04:47:50.731Z,97728.12
2023-01-15T04:50:26.870Z,97728.29
2023-01-15T04:53:07.267Z,97724.41
2023-01-15T04:56:07.912Z,97723.18
2023-01-15T04:58:44.073Z,97714.95
2023-01-15T05:01:20.174Z,97713.53
2023-01-15T05:03:54.347Z,97711.41
2023-01-15T05:07:01.608Z,97703.55
2023-01-15T05:09:35.714Z,97704.92
2023-01-15T05:15:36.575Z,97708.94
2023-01-15T05:18:15.060Z,97701.25
2023-01-15T05:27:43.499Z,97677.48
2023-01-15T05:30:43.889Z,97675.73
2023-01-15T05:40:04.206Z,97677.17
2023-01-15T05:42:40.471Z,97677.00
2023-01-15T05:45:40.446Z,97672.63
2023-01-15T05:49:02.866Z,97664.25
2023-01-15T05:51:41.424Z,97669.34
2023-01-15T05:54:46.783Z,97672.13
2023-01-15T05:57:46.635Z,97665.48
2023-01-15T06:00:22.086Z,97662.16
2023-01-15T06:03:18.209Z,97664.44
2023-01-15T06:05:56.573Z,97656.58
2023-01-15T06:09:22.046Z,97659.73
2023-01-15T06:16:06.390Z,97663.30
2023-01-15T06:19:05.877Z,97661.73
2023-01-15T06:21:43.943Z,97662.10
2023-01-15T06:24:18.006Z,97664.03
2023-01-15T06:27:40.465Z,97665.95
2023-01-15T06:31:01.762Z,97669.28
2023-01-15T06:33:43.695Z,97666.16
2023-01-15T06:36:24.844Z,97663.17
2023-01-15T06:39:51.855Z,97663.01
2023-01-15T06:43:06.003Z,97661.09
2023-01-15T06:53:18.094Z,97660.42
2023-01-15T06:55:56.574Z,97658.16
2023-01-15T06:58:32.517Z,97662.86
2023-01-15T07:01:12.279Z,97663.56
2023-01-15T07:04:14.442Z,97657.42
2023-01-15T07:07:11.096Z,97651.13
2023-01-15T07:10:10.210Z,97658.11
2023-01-15T07:12:43.217Z,97658.96
2023-01-15T07:15:18.842Z,97665.94
2023-01-15T07:17:55.535Z,97666.44
2023-01-15T07:20:52.947Z,97669.20
2023-01-15T07:23:26.701Z,97681.43
2023-01-15T07:26:25.417Z,97671.96
2023-01-15T07:29:01.723Z,97671.24
2023-01-15T07:32:02.587Z,97671.92
2023-01-15T07:34:37.096Z,97668.75
2023-01-15T07:37:12.713Z,97673.45
2023-01-15T07:39:50.006Z,97681.64
2023-01-15T07:42:47.749Z,97682.16
2023-01-15T07:49:54.988Z,97660.60
2023-01-15T07:52:33.008Z,97656.23
2023-01-15T07:55:08.513Z,97653.44
2023-01-15T07:57:41.379Z,97652.90
2023-01-15T08:00:21.078Z,97657.09
2023-01-15T08:02:55.381Z,97654.99
2023-01-15T08:05:30.462Z,97651.83
2023-01-15T08:08:05.777Z,97640.77
2023-01-15T08:10:58.810Z,97643.71
2023-01-15T08:13:50.326Z,97646.31
2023-01-15T08:17:13.849Z,97650.87
2023-01-15T08:19:48.667Z,97640.54
2023-01-15T08:22:49.894Z,97647.00
2023-01-15T08:25:26.720Z,97656.27
2023-01-15T08:31:25.225Z,97659.58
2023-01-15T08:33:58.044Z,97659.75
2023-01-15T08:36:35.896Z,97652.05
2023-01-15T08:39:13.707Z,97654.30
2023-01-15T08:48:38.113Z,97642.36
2023-01-15T08:52:03.508Z,97642.16
2023-01-15T08:54:42.024Z,97633.77
2023-01-15T08:57:40.525Z,97633.23
2023-01-15T09:00:17.509Z,97624.98
2023-01-15T09:03:19.786Z,97616.42
2023-01-15T09:05:56.636Z,97621.67
2023-01-15T09:08:33.605Z,97619.56
2023-01-15T09:11:34.479Z,97617.13
2023-01-15T09:17:42.125Z,97606.79
2023-01-15T09:20:17.048Z,97608.00
2023-01-15T09:22:52.913Z,97603.79
2023-01-15T09:25:27.274Z,97605.67
2023-01-15T09:28:04.547Z,97601.62
2023-01-15T09:31:24.841Z,97607.52
2023-01-15T09:33:58.684Z,97611.85
2023-01-15T09:36:40.430Z,97613.02
2023-01-15T09:39:15.144Z,97615.29
2023-01-15T09:45:22.727Z,97610.31
2023-01-15T09:48:22.994Z,97599.95
2023-01-15T09:51:05.904Z,97599.45
2023-01-15T09:54:01.201Z,97595.44
2023-01-15T09:57:00.837Z,97598.96
2023-01-15T09:59:37.640Z,97590.77
2023-01-15T10:02:24.272Z,97592.05
2023-01-15T10:12:00.223Z,97575.47
2023-01-15T10:15:05.525Z,97569.39
2023-01-15T10:17:44.461Z,97564.86
2023-01-15T10:30:22.329Z,97546.77
2023-01-15T10:33:02.649Z,97538.73
2023-01-15T10:35:40.583Z,97534.21
2023-01-15T10:38:49.829Z,97527.75
2023-01-15T10:41:37.878Z,97521.31
2023-01-15T10:44:23.652Z,97523.75
2023-01-15T10:47:00.079Z,97518.15
2023-01-15T10:49:59.193Z,97517.98
2023-01-15T10:52:39.685Z,97512.20
2023-01-15T10:58:31.036Z,97509.41
2023-01-15T11:04:37.483Z,97498.61
2023-01-15T11:07:16.645Z,97493.41
2023-01-15T11:10:36.866Z,97489.44
2023-01-15T11:20:45.002Z,97468.95
2023-01-15T11:24:11.097Z,97459.69
2023-01-15T11:27:11.156Z,97453.21
2023-01-15T11:29:48.758Z,97451.10
2023-01-15T11:32:56.373Z,97449.34
2023-01-15T11:38:55.260Z,97438.94
2023-01-15T11:46:10.167Z,97434.04
2023-01-15T11:52:07.633Z,97418.18
2023-01-15T11:54:42.831Z,97418.48
2023-01-15T11:57:33.611Z,97420.20
2023-01-15T12:00:09.093Z,97422.63
2023-01-15T12:02:48.260Z,97416.81
2023-01-15T12:05:50.656Z,97423.77
2023-01-15T12:08:44.028Z,97423.89
2023-01-15T12:21:50.148Z,97407.36
2023-01-15T12:25:05.874Z,97406.66
2023-01-15T12:27:55.730Z,97406.61
2023-01-15T12:30:56.097Z,97402.23
2023-01-15T12:33:46.497Z,97399.42
2023-01-15T12:36:21.405Z,97398.88
2023-01-15T12:46:37.788Z,97383.35
2023-01-15T12:49:40.213Z,97380.39
2023-01-15T12:52:24.564Z,97382.34
2023-01-15T12:55:03.558Z,97383.56
2023-01-15T12:58:03.847Z,97381.24
2023-01-15T13:07:28.358Z,97368.80
2023-01-15T13:13:42.818Z,97372.69
2023-01-15T13:16:24.635Z,97371.30
2023-01-15T13:20:10.948Z,97374.27
2023-01-15T13:22:52.064Z,97372.65
2023-01-15T13:32:42.408Z,97367.52
2023-01-15T13:35:32.036Z,97373.80
2023-01-15T13:38:08.986Z,97382.90
2023-01-15T13:40:51.934Z,97380.46
2023-01-15T13:43:34.138Z,97380.77
2023-01-15T13:46:34.697Z,97378.29
2023-01-15T13:49:08.780Z,97369.90
2023-01-15T13:54:51.848Z,97362.56
2023-01-15T13:57:51.151Z,97360.98
2023-01-15T14:01:17.214Z,97364.19
2023-01-15T14:04:10.097Z,97366.14
2023-01-15T14:06:50.355Z,97369.98
2023-01-15T14:15:49.687Z,97362.69
2023-01-15T14:19:14.739Z,97356.73
2023-01-15T14:22:02.892Z,97354.18
2023-01-15T14:25:13.729Z,97356.43
2023-01-15T14:28:33.590Z,97361.91
2023-01-15T14:34:28.849Z,97360.70
2023-01-15T14:37:04.708Z,97353.69
2023-01-15T14:40:25.586Z,97350.73
2023-01-15T14:46:22.087Z,97360.73
2023-01-15T14:50:10.213Z,97364.41
2023-01-15T14:52:47.380Z,97366.17
2023-01-15T14:59:18.275Z,97367.41
2023-01-15T15:02:21.997Z,97366.36
2023-01-15T15:08:43.902Z,97374.46
2023-01-15T15:11:48.652Z,97382.86
2023-01-15T15:14:50.297Z,97380.75
2023-01-15T15:18:03.739Z,97376.73
2023-01-15T15:21:17.086Z,97378.16
2023-01-15T15:24:19.907Z,97374.20
2023-01-15T15:26:57.887Z,97377.95
2023-01-15T15:29:55.410Z,97384.80
2023-01-15T15:32:54.662Z,97382.59
2023-01-15T15:35:33.056Z,97385.23
2023-01-15T15:38:09.174Z,97383.15
2023-01-15T15:41:14.836Z,97378.86
2023-01-15T15:47:49.122Z,97378.97
2023-01-15T15:50:58.118Z,97383.04
2023-01-15T15:53:37.993Z,97389.14
2023-01-15T15:56:36.460Z,97386.89
2023-01-15T16:02:40.933Z,97397.09
2023-01-15T16:05:31.496Z,97400.08
2023-01-15T16:08:31.187Z,97395.74
2023-01-15T16:11:10.330Z,97399.42
2023-01-15T16:14:11.824Z,97397.36
2023-01-15T16:16:55.157Z,97415.38
2023-01-15T16:19:33.122Z,97434.95
2023-01-15T16:25:31.825Z,97469.81
2023-01-15T16:28:53.025Z,97476.30
2023-01-15T16:31:51.368Z,97489.08
2023-01-15T16:34:26.515Z,97491.20
2023-01-15T16:37:01.338Z,97497.32
2023-01-15T16:39:38.835Z,97509.92
2023-01-15T16:48:41.525Z,97562.58
2023-01-15T16:55:33.387Z,97583.08
2023-01-15T17:02:24.675Z,97600.17
2023-01-15T17:05:26.285Z,97605.42
2023-01-15T17:07:59.109Z,97618.14
2023-01-15T17:10:35.120Z,97629.63
2023-01-15T17:16:36.813Z,97637.77
2023-01-15T17:19:11.913Z,97638.58
2023-01-15T17:22:11.538Z,97649.54
2023-01-15T17:25:35.056Z,97657.84
2023-01-15T17:28:57.662Z,97656.60
2023-01-15T17:32:20.681Z,97667.88
2023-01-15T17:35:25.400Z,97669.95
2023-01-15T17:37:59.414Z,97674.45
2023-01-15T17:40:33.775Z,97677.75
2023-01-15T17:43:06.699Z,97680.70
2023-01-15T17:45:41.998Z,97683.66
2023-01-15T17:48:20.883Z,97680.50
2023-01-15T17:50:56.154Z,97685.58
2023-01-15T17:53:57.801Z,97684.36
2023-01-15T18:00:34.735Z,97693.56
2023-01-15T18:03:31.541Z,97704.54
2023-01-15T18:06:33.992Z,97710.30
2023-01-15T18:09:54.887Z,97709.27
2023-01-15T18:12:28.230Z,97714.64
2023-01-15T18:15:03.833Z,97720.02
2023-01-15T18:17:38.600Z,97719.69
2023-01-15T18:20:15.559Z,97721.42
2023-01-15T18:22:49.478Z,97725.94
2023-01-15T18:25:26.393Z,97729.59
2023-01-15T18:28:01.982Z,97727.68
2023-01-15T18:30:36.753Z,97727.34
2023-01-15T18:33:56.464Z,97728.20
2023-01-15T18:36:36.568Z,97725.77
2023-01-15T18:39:14.762Z,97724.21
2023-01-15T18:45:55.046Z,97722.27
2023-01-15T18:48:30.084Z,97727.30
2023-01-15T18:51:10.961Z,97727.98
2023-01-15T18:54:12.237Z,97726.75
2023-01-15T18:57:14.189Z,97730.58
2023-01-15T19:00:13.832Z,97727.45
2023-01-15T19:02:50.908Z,97721.36
2023-01-15T19:05:26.342Z,97719.61
2023-01-15T19:08:01.162Z,97713.52
2023-01-15T19:10:36.995Z,97720.29
2023-01-15T19:13:18.242Z,97719.58
2023-01-15T19:16:17.062Z,97716.45
2023-01-15T19:19:18.962Z,97713.81
2023-01-15T19:22:09.558Z,97718.14
2023-01-15T19:24:43.631Z,97719.19
2023-01-15T19:27:49.555Z,97722.67
2023-01-15T19:30:25.557Z,97718.31
2023-01-15T19:32:58.217Z,97724.58
2023-01-15T19:35:33.953Z,97732.08
2023-01-15T19:38:10.781Z,97738.19
2023-01-15T19:41:30.837Z,97740.25
2023-01-15T19:44:24.982Z,97739.19
2023-01-15T19:58:05.644Z,97753.43
2023-01-15T20:01:02.729Z,97750.13
2023-01-15T20:04:01.249Z,97747.46
2023-01-15T20:06:35.984Z,97744.14
2023-01-15T20:09:09.697Z,97746.59
2023-01-15T20:14:55.239Z,97752.35
2023-01-15T20:17:30.804Z,97751.86
2023-01-15T20:20:08.440Z,97758.28
2023-01-15T20:22:44.343Z,97757.75
2023-01-15T20:25:23.779Z,97760.52
2023-01-15T20:27:58.023Z,97759.81
2023-01-15T20:30:33.110Z,97757.55
2023-01-15T20:33:07.408Z,97757.26
2023-01-15T20:35:44.184Z,97756.54
2023-01-15T20:38:21.052Z,97756.72
2023-01-15T20:40:54.702Z,97754.48
2023-01-15T20:43:52.240Z,97750.65
2023-01-15T20:46:26.299Z,97751.30
2023-01-15T20:55:17.045Z,97751.41
2023-01-15T21:05:11.136Z,97741.02
2023-01-15T21:07:48.231Z,97746.52
2023-01-15T21:10:26.534Z,97750.34
2023-01-15T21:12:59.361Z,97751.41
2023-01-15T21:15:35.649Z,97754.70
2023-01-15T21:18:12.640Z,97751.75
2023-01-15T21:20:51.508Z,97750.69
2023-01-15T21:23:48.067Z,97752.96
2023-01-15T21:26:25.039Z,97744.08
2023-01-15T21:28:59.679Z,97744.27
2023-01-15T21:31:32.935Z,97749.48
2023-01-15T21:34:10.033Z,97748.23
2023-01-15T21:37:12.360Z,97745.30
2023-01-15T21:40:13.089Z,97736.08
2023-01-15T21:43:10.219Z,97743.91
2023-01-15T21:45:46.169Z,97740.93
2023-01-15T21:48:26.049Z,97737.64
2023-01-15T21:51:49.320Z,97729.30
2023-01-15T21:54:47.957Z,97726.16
2023-01-15T21:57:22.881Z,97725.11
2023-01-15T22:00:46.105Z,97727.90
2023-01-15T22:03:43.879Z,97730.16
2023-01-15T22:07:30.646Z,97728.92
2023-01-15T22:10:06.374Z,97726.46
2023-01-15T22:12:44.873Z,97724.19
2023-01-15T22:15:18.832Z,97727.33
2023-01-15T22:18:41.148Z,97732.05
2023-01-15T22:21:18.106Z,97733.46
2023-01-15T22:23:52.767Z,97736.58
2023-01-15T22:27:21.365Z,97731.89
2023-01-15T22:29:56.693Z,97733.80
2023-01-15T22:32:28.688Z,97736.23
2023-01-15T22:35:05.799Z,97737.96
2023-01-15T22:37:39.083Z,97737.79
2023-01-15T22:40:17.013Z,97738.14
2023-01-15T22:42:52.362Z,97736.23
2023-01-15T22:45:26.883Z,97741.11
2023-01-15T22:48:01.527Z,97736.59
2023-01-15T22:51:25.179Z,97738.67
2023-01-15T22:53:58.646Z,97732.74
2023-01-15T22:56:31.478Z,97727.69
2023-01-15T22:59:09.370Z,97722.27
2023-01-15T23:05:05.596Z,97712.91
2023-01-15T23:11:32.030Z,97706.44
2023-01-15T23:14:05.798Z,97708.88
2023-01-15T23:17:29.326Z,97712.69
2023-01-15T23:20:14.325Z,97705.55
2023-01-15T23:23:13.845Z,97700.68
2023-01-15T23:26:39.669Z,97706.77
2023-01-15T23:29:13.142Z,97703.45
2023-01-15T23:32:10.662Z,97706.40
2023-01-15T23:34:44.513Z,97703.41
2023-01-15T23:37:20.104Z,97703.58
2023-01-15T23:39:54.894Z,97707.89
2023-01-15T23:42:54.293Z,97712.73
2023-01-15T23:52:05.624Z,97712.40
2023-01-15T23:55:05.182Z,97704.34
2023-01-15T23:57:39.034Z,97704.83
